createdAt,value
2023-02-23T00:00:43.362Z,22.7
2023-02-23T00:01:45.859Z,22.5
2023-02-23T00:02:48.462Z,22.7
2023-02-23T00:03:51.612Z,22.3
2023-02-23T00:04:54.127Z,22.7
2023-02-23T00:05:56.626Z,22.5
2023-02-23T00:06:59.361Z,22.6
2023-02-23T00:08:01.583Z,22.7
2023-02-23T00:09:04.108Z,22.6
2023-02-23T00:10:06.595Z,22.6
2023-02-23T00:11:09.095Z,22.7
2023-02-23T00:12:11.315Z,22.4
2023-02-23T00:13:13.817Z,22.7
2023-02-23T00:14:16.048Z,22.6
2023-02-23T00:15:18.254Z,22.6
2023-02-23T00:16:20.813Z,22.5
2023-02-23T00:17:23.594Z,22.5
2023-02-23T00:18:26.122Z,22.6
2023-02-23T00:19:28.393Z,22.6
2023-02-23T00:20:30.644Z,22.6
2023-02-23T00:21:33.171Z,22.5
2023-02-23T00:22:35.832Z,22.7
2023-02-23T00:23:38.339Z,22.6
2023-02-23T00:24:40.869Z,22.5
2023-02-23T00:25:42.542Z,22.6
2023-02-23T00:26:45.018Z,22.4
2023-02-23T00:27:46.954Z,22.7
2023-02-23T00:28:49.196Z,22.5
2023-02-23T00:29:51.169Z,22.5
2023-02-23T00:30:53.692Z,22.6
2023-02-23T00:31:56.424Z,22.3
2023-02-23T00:32:59.705Z,22.5
2023-02-23T00:34:01.658Z,22.6
2023-02-23T00:35:04.191Z,22.6
2023-02-23T00:36:06.132Z,22.5
2023-02-23T00:37:08.327Z,22.5
2023-02-23T00:38:10.904Z,22.6
2023-02-23T00:39:13.403Z,22.4
2023-02-23T00:40:15.889Z,22.6
2023-02-23T00:41:18.659Z,22.5
2023-02-23T00:42:22.348Z,22.5
2023-02-23T00:43:24.942Z,22.6
2023-02-23T00:44:27.417Z,22.5
2023-02-23T00:45:29.926Z,22.8
2023-02-23T00:46:32.426Z,22.7
2023-02-23T00:47:34.906Z,22.7
2023-02-23T00:48:37.411Z,22.7
2023-02-23T00:49:39.334Z,22.6
2023-02-23T00:50:41.882Z,22.7
2023-02-23T00:51:44.394Z,22.6
2023-02-23T00:52:46.912Z,22.6
2023-02-23T00:53:49.538Z,22.7
2023-02-23T00:54:52.072Z,22.7
2023-02-23T00:55:54.581Z,22.7
2023-02-23T00:56:57.085Z,22.5
2023-02-23T00:57:59.593Z,22.9
2023-02-23T00:59:02.094Z,22.7
2023-02-23T01:00:04.322Z,22.7
2023-02-23T01:01:06.874Z,22.8
2023-02-23T01:02:09.355Z,22.7
2023-02-23T01:03:11.725Z,22.9
2023-02-23T01:04:14.231Z,22.8
2023-02-23T01:05:16.757Z,22.8
2023-02-23T01:06:18.700Z,22.8
2023-02-23T01:07:21.196Z,22.8
2023-02-23T01:08:23.699Z,22.6
2023-02-23T01:09:25.997Z,22.7
2023-02-23T01:10:28.321Z,22.8
2023-02-23T01:11:30.811Z,22.8
2023-02-23T01:12:33.317Z,22.9
2023-02-23T01:13:35.799Z,22.6
2023-02-23T01:14:38.311Z,22.8
2023-02-23T01:15:40.843Z,22.8
2023-02-23T01:16:43.385Z,22.8
2023-02-23T01:17:45.886Z,22.7
2023-02-23T01:18:48.416Z,22.8
2023-02-23T01:19:50.961Z,22.6
2023-02-23T01:20:53.457Z,22.8
2023-02-23T01:21:55.944Z,22.8
2023-02-23T01:22:58.459Z,22.7
2023-02-23T01:24:00.959Z,22.7
2023-02-23T01:25:03.540Z,22.8
2023-02-23T01:26:05.746Z,22.7
2023-02-23T01:27:08.265Z,22.9
2023-02-23T01:28:10.938Z,22.8
2023-02-23T01:29:13.464Z,22.8
2023-02-23T01:30:15.456Z,22.7
2023-02-23T01:31:17.874Z,22.7
2023-02-23T01:32:23.174Z,22.8
2023-02-23T01:33:25.935Z,22.8
2023-02-23T01:34:28.439Z,22.8
2023-02-23T01:35:30.929Z,22.8
2023-02-23T01:36:33.189Z,23
2023-02-23T01:37:35.701Z,22.8
2023-02-23T01:38:38.199Z,22.8
2023-02-23T01:39:40.708Z,22.8
2023-02-23T01:40:43.635Z,22.9
2023-02-23T01:41:45.894Z,22.9
2023-02-23T01:42:48.119Z,22.8
2023-02-23T01:43:50.630Z,22.8
2023-02-23T01:44:53.146Z,22.7
2023-02-23T01:45:55.688Z,22.7
2023-02-23T01:46:58.713Z,22.7
2023-02-23T01:48:01.284Z,22.9
2023-02-23T01:49:03.856Z,22.8
2023-02-23T01:50:06.399Z,22.6
2023-02-23T01:51:08.618Z,22.7
2023-02-23T01:52:11.121Z,22.8
2023-02-23T01:53:13.362Z,22.8
2023-02-23T01:54:15.614Z,22.9
2023-02-23T01:55:18.250Z,22.8
2023-02-23T01:56:20.908Z,22.8
2023-02-23T01:57:23.403Z,22.8
2023-02-23T01:58:26.236Z,22.8
2023-02-23T01:59:28.726Z,22.9
2023-02-23T02:00:31.245Z,22.9
2023-02-23T02:01:33.779Z,22.9
2023-02-23T02:02:36.296Z,22.9
2023-02-23T02:03:38.816Z,22.9
2023-02-23T02:04:41.346Z,22.9
2023-02-23T02:05:43.989Z,22.7
2023-02-23T02:06:46.234Z,22.8
2023-02-23T02:07:48.429Z,22.9
2023-02-23T02:08:50.924Z,22.8
2023-02-23T02:09:53.404Z,22.7
2023-02-23T02:10:55.937Z,22.8
2023-02-23T02:11:58.573Z,22.9
2023-02-23T02:13:00.543Z,22.7
2023-02-23T02:14:02.751Z,22.7
2023-02-23T02:15:05.248Z,22.8
2023-02-23T02:16:07.789Z,22.9
2023-02-23T02:17:10.629Z,22.9
2023-02-23T02:18:13.141Z,22.8
2023-02-23T02:19:15.105Z,22.9
2023-02-23T02:20:17.607Z,22.8
2023-02-23T02:21:20.049Z,23
2023-02-23T02:22:22.919Z,22.8
2023-02-23T02:23:25.444Z,22.8
2023-02-23T02:24:29.720Z,23
2023-02-23T02:25:32.961Z,23
2023-02-23T02:26:35.184Z,22.9
2023-02-23T02:27:37.835Z,23
2023-02-23T02:28:40.335Z,23
2023-02-23T02:29:42.840Z,23.1
2023-02-23T02:30:45.157Z,22.8
2023-02-23T02:31:47.690Z,23
2023-02-23T02:32:50.841Z,22.9
2023-02-23T02:33:52.492Z,22.9
2023-02-23T02:34:55.030Z,22.9
2023-02-23T02:35:57.534Z,22.8
2023-02-23T02:36:59.817Z,22.9
2023-02-23T02:38:02.055Z,22.8
2023-02-23T02:39:04.543Z,23
2023-02-23T02:40:07.039Z,22.9
2023-02-23T02:41:09.534Z,22.9
2023-02-23T02:42:11.832Z,22.9
2023-02-23T02:43:14.454Z,23
2023-02-23T02:44:16.966Z,22.9
2023-02-23T02:45:19.210Z,22.9
2023-02-23T02:46:21.717Z,23
2023-02-23T02:47:24.515Z,23
2023-02-23T02:48:27.022Z,22.9
2023-02-23T02:49:29.515Z,22.9
2023-02-23T02:50:31.787Z,23
2023-02-23T02:51:34.307Z,23
2023-02-23T02:52:36.866Z,22.8
2023-02-23T02:53:39.350Z,23
2023-02-23T02:54:41.580Z,22.9
2023-02-23T02:55:44.066Z,22.8
2023-02-23T02:56:46.549Z,23
2023-02-23T02:57:48.758Z,23
2023-02-23T02:58:51.393Z,22.8
2023-02-23T02:59:53.912Z,22.8
2023-02-23T03:00:56.142Z,22.9
2023-02-23T03:01:58.658Z,22.9
2023-02-23T03:03:00.989Z,22.9
2023-02-23T03:04:03.220Z,22.9
2023-02-23T03:05:05.460Z,23.1
2023-02-23T03:06:07.893Z,22.9
2023-02-23T03:07:10.399Z,22.8
2023-02-23T03:08:12.662Z,22.9
2023-02-23T03:09:15.178Z,22.9
2023-02-23T03:10:17.700Z,22.9
2023-02-23T03:11:20.370Z,23
2023-02-23T03:12:23.500Z,22.9
2023-02-23T03:13:25.748Z,22.9
2023-02-23T03:14:28.351Z,22.9
2023-02-23T03:15:30.840Z,22.8
2023-02-23T03:16:33.339Z,22.9
2023-02-23T03:17:37.509Z,22.9
2023-02-23T03:18:40.532Z,23
2023-02-23T03:19:42.800Z,22.9
2023-02-23T03:20:45.293Z,22.9
2023-02-23T03:21:47.809Z,22.9
2023-02-23T03:22:50.023Z,22.9
2023-02-23T03:23:52.522Z,22.9
2023-02-23T03:24:55.037Z,22.9
2023-02-23T03:25:57.628Z,22.9
2023-02-23T03:26:59.851Z,22.9
2023-02-23T03:28:02.412Z,22.9
2023-02-23T03:29:04.625Z,22.9
2023-02-23T03:30:07.426Z,22.9
2023-02-23T03:31:09.939Z,22.8
2023-02-23T03:32:12.314Z,22.9
2023-02-23T03:33:15.132Z,22.8
2023-02-23T03:34:17.362Z,22.9
2023-02-23T03:35:19.677Z,23.1
2023-02-23T03:36:21.621Z,23
2023-02-23T03:37:23.594Z,22.9
2023-02-23T03:38:26.132Z,22.9
2023-02-23T03:39:28.626Z,23
2023-02-23T03:40:31.160Z,22.9
2023-02-23T03:41:33.415Z,22.9
2023-02-23T03:42:35.958Z,23
2023-02-23T03:43:38.547Z,22.9
2023-02-23T03:44:40.275Z,23
2023-02-23T03:45:42.755Z,23
2023-02-23T03:46:45.501Z,22.9
2023-02-23T03:47:47.990Z,22.9
2023-02-23T03:48:50.486Z,23
2023-02-23T03:49:52.977Z,23
2023-02-23T03:50:54.940Z,23
2023-02-23T03:51:56.930Z,22.9
2023-02-23T03:52:59.524Z,22.9
2023-02-23T03:54:02.084Z,22.9
2023-02-23T03:55:04.774Z,22.9
2023-02-23T03:56:06.759Z,23
2023-02-23T03:57:09.018Z,23
2023-02-23T03:58:11.544Z,23
2023-02-23T03:59:13.799Z,23
2023-02-23T04:00:16.037Z,22.9
2023-02-23T04:01:19.030Z,23
2023-02-23T04:02:22.377Z,23
2023-02-23T04:03:24.731Z,23
2023-02-23T04:04:27.295Z,23.1
2023-02-23T04:05:29.286Z,23.1
2023-02-23T04:06:31.790Z,23
2023-02-23T04:07:34.324Z,23
2023-02-23T04:08:36.841Z,23.1
2023-02-23T04:09:39.102Z,23
2023-02-23T04:10:41.664Z,22.9
2023-02-23T04:11:43.884Z,23
2023-02-23T04:12:46.372Z,22.9
2023-02-23T04:13:48.885Z,22.9
2023-02-23T04:14:51.107Z,22.9
2023-02-23T04:15:53.327Z,22.9
2023-02-23T04:16:55.988Z,22.8
2023-02-23T04:17:58.477Z,22.9
2023-02-23T04:19:00.681Z,22.9
2023-02-23T04:20:03.191Z,23
2023-02-23T04:21:05.759Z,22.9
2023-02-23T04:22:08.062Z,22.8
2023-02-23T04:23:10.273Z,22.9
2023-02-23T04:24:12.845Z,22.9
2023-02-23T04:25:17.079Z,22.8
2023-02-23T04:26:20.065Z,22.8
2023-02-23T04:27:22.552Z,22.7
2023-02-23T04:28:24.763Z,22.8
2023-02-23T04:29:27.000Z,22.7
2023-02-23T04:30:29.325Z,22.7
2023-02-23T04:31:31.996Z,22.9
2023-02-23T04:32:35.164Z,22.9
2023-02-23T04:33:38.429Z,22.7
2023-02-23T04:34:40.936Z,22.8
2023-02-23T04:35:43.446Z,22.7
2023-02-23T04:36:45.966Z,22.7
2023-02-23T04:37:48.480Z,22.6
2023-02-23T04:38:51.044Z,22.8
2023-02-23T04:39:53.622Z,22.8
2023-02-23T04:40:55.860Z,22.7
2023-02-23T04:41:58.401Z,22.7
2023-02-23T04:43:00.896Z,22.8
2023-02-23T04:44:03.413Z,22.6
2023-02-23T04:45:05.665Z,22.8
2023-02-23T04:46:08.199Z,22.7
2023-02-23T04:47:10.978Z,22.7
2023-02-23T04:48:13.719Z,22.8
2023-02-23T04:49:16.239Z,22.7
2023-02-23T04:50:18.501Z,22.7
2023-02-23T04:51:21.284Z,22.6
2023-02-23T04:52:23.931Z,22.7
2023-02-23T04:53:26.462Z,22.8
2023-02-23T04:54:28.736Z,22.6
2023-02-23T04:55:31.265Z,22.8
2023-02-23T04:56:33.869Z,22.7
2023-02-23T04:57:36.490Z,22.6
2023-02-23T04:58:39.026Z,22.6
2023-02-23T04:59:41.564Z,22.6
2023-02-23T05:00:43.773Z,22.7
2023-02-23T05:01:46.362Z,22.7
2023-02-23T05:02:50.550Z,22.7
2023-02-23T05:03:53.281Z,22.5
2023-02-23T05:04:55.830Z,22.6
2023-02-23T05:05:58.642Z,22.5
2023-02-23T05:07:01.141Z,22.5
2023-02-23T05:08:03.355Z,22.7
2023-02-23T05:09:05.301Z,22.6
2023-02-23T05:10:07.807Z,22.6
2023-02-23T05:11:09.821Z,22.7
2023-02-23T05:12:12.299Z,22.7
2023-02-23T05:13:14.804Z,22.6
2023-02-23T05:14:17.300Z,22.6
2023-02-23T05:15:19.825Z,22.6
2023-02-23T05:16:22.030Z,22.6
2023-02-23T05:17:24.256Z,22.5
2023-02-23T05:18:26.926Z,22.6
2023-02-23T05:19:29.512Z,22.7
2023-02-23T05:20:31.746Z,22.6
2023-02-23T05:21:34.000Z,22.6
2023-02-23T05:22:36.220Z,22.6
2023-02-23T05:23:38.463Z,22.7
2023-02-23T05:24:41.003Z,22.7
2023-02-23T05:25:43.499Z,22.8
2023-02-23T05:26:45.736Z,22.5
2023-02-23T05:27:48.219Z,22.8
2023-02-23T05:28:50.950Z,22.7
2023-02-23T05:29:53.460Z,22.5
2023-02-23T05:30:56.042Z,22.7
2023-02-23T05:31:59.201Z,22.6
2023-02-23T05:33:02.404Z,22.7
2023-02-23T05:34:04.931Z,22.7
2023-02-23T05:35:07.676Z,22.7
2023-02-23T05:36:10.204Z,22.6
2023-02-23T05:37:12.750Z,22.6
2023-02-23T05:38:15.256Z,22.6
2023-02-23T05:39:17.765Z,22.4
2023-02-23T05:40:20.274Z,22.5
2023-02-23T05:41:22.558Z,22.6
2023-02-23T05:42:24.766Z,22.6
2023-02-23T05:43:27.317Z,22.5
2023-02-23T05:44:29.803Z,22.7
2023-02-23T05:45:32.316Z,22.5
2023-02-23T05:46:34.592Z,22.6
2023-02-23T05:47:37.495Z,22.7
2023-02-23T05:48:40.121Z,22.7
2023-02-23T05:49:42.360Z,22.6
2023-02-23T05:50:45.025Z,22.6
2023-02-23T05:51:47.534Z,22.5
2023-02-23T05:52:49.739Z,22.6
2023-02-23T05:53:51.962Z,22.6
2023-02-23T05:54:54.458Z,22.6
2023-02-23T05:55:57.009Z,22.7
2023-02-23T05:57:01.510Z,22.6
2023-02-23T05:58:04.232Z,22.5
2023-02-23T05:59:06.738Z,22.7
2023-02-23T06:00:08.960Z,22.6
2023-02-23T06:01:11.182Z,22.6
2023-02-23T06:02:13.724Z,22.6
2023-02-23T06:03:16.385Z,22.6
2023-02-23T06:04:19.220Z,22.6
2023-02-23T06:05:21.758Z,22.5
2023-02-23T06:06:24.498Z,22.6
2023-02-23T06:07:27.078Z,22.5
2023-02-23T06:08:29.598Z,22.5
2023-02-23T06:09:32.194Z,22.6
2023-02-23T06:10:34.743Z,22.6
2023-02-23T06:11:36.969Z,22.5
2023-02-23T06:12:39.212Z,22.6
2023-02-23T06:13:41.465Z,22.4
2023-02-23T06:14:43.956Z,22.6
2023-02-23T06:15:46.292Z,22.5
2023-02-23T06:16:49.059Z,22.5
2023-02-23T06:17:51.831Z,22.6
2023-02-23T06:18:54.345Z,22.4
2023-02-23T06:19:56.849Z,22.6
2023-02-23T06:20:59.346Z,22.5
2023-02-23T06:22:01.890Z,22.5
2023-02-23T06:23:04.391Z,22.6
2023-02-23T06:24:06.641Z,22.5
2023-02-23T06:25:09.166Z,22.6
2023-02-23T06:26:11.674Z,22.6
2023-02-23T06:27:14.184Z,22.4
2023-02-23T06:28:16.394Z,22.4
2023-02-23T06:29:18.642Z,22.5
2023-02-23T06:30:21.118Z,22.5
2023-02-23T06:31:23.660Z,22.5
2023-02-23T06:32:26.208Z,22.5
2023-02-23T06:33:28.890Z,22.5
2023-02-23T06:34:31.414Z,22.5
2023-02-23T06:35:33.946Z,22.4
2023-02-23T06:36:35.896Z,22.4
2023-02-23T06:37:38.579Z,22.3
2023-02-23T06:38:41.107Z,22.6
2023-02-23T06:39:43.342Z,22.5
2023-02-23T06:40:45.617Z,22.5
2023-02-23T06:41:48.127Z,22.3
2023-02-23T06:42:50.646Z,22.4
2023-02-23T06:43:52.863Z,22.3
2023-02-23T06:44:55.135Z,22.5
2023-02-23T06:45:57.660Z,22.4
2023-02-23T06:47:00.183Z,22.4
2023-02-23T06:48:02.703Z,22.5
2023-02-23T06:49:05.224Z,22.5
2023-02-23T06:50:07.449Z,22.4
2023-02-23T06:51:09.378Z,22.5
2023-02-23T06:52:11.923Z,22.4
2023-02-23T06:53:14.636Z,22.6
2023-02-23T06:54:17.133Z,22.4
2023-02-23T06:55:19.675Z,22.6
2023-02-23T06:56:22.171Z,22.5
2023-02-23T06:57:24.698Z,22.5
2023-02-23T06:58:26.954Z,22.5
2023-02-23T06:59:29.175Z,22.5
2023-02-23T07:00:31.790Z,22.6
2023-02-23T07:01:34.342Z,22.5
2023-02-23T07:02:37.025Z,22.4
2023-02-23T07:03:39.548Z,22.5
2023-02-23T07:04:42.301Z,22.5
2023-02-23T07:05:44.799Z,22.5
2023-02-23T07:06:47.058Z,22.6
2023-02-23T07:07:49.025Z,22.5
2023-02-23T07:08:51.382Z,22.6
2023-02-23T07:09:53.600Z,22.6
2023-02-23T07:10:55.841Z,22.5
2023-02-23T07:11:58.342Z,22.6
2023-02-23T07:13:00.860Z,22.6
2023-02-23T07:14:03.389Z,22.5
2023-02-23T07:15:08.216Z,22.6
2023-02-23T07:16:10.759Z,22.6
2023-02-23T07:17:13.430Z,22.7
2023-02-23T07:18:15.646Z,22.6
2023-02-23T07:19:18.195Z,22.7
2023-02-23T07:20:20.818Z,22.5
2023-02-23T07:21:22.776Z,22.5
2023-02-23T07:22:24.728Z,22.5
2023-02-23T07:23:27.264Z,22.6
2023-02-23T07:24:30.030Z,22.5
2023-02-23T07:25:32.545Z,22.6
2023-02-23T07:26:35.081Z,22.5
2023-02-23T07:27:37.017Z,22.4
2023-02-23T07:28:39.532Z,22.5
2023-02-23T07:29:41.756Z,22.5
2023-02-23T07:30:44.274Z,22.5
2023-02-23T07:31:47.180Z,22.5
2023-02-23T07:32:50.073Z,22.5
2023-02-23T07:33:52.002Z,22.6
2023-02-23T07:34:54.506Z,22.6
2023-02-23T07:35:57.048Z,22.5
2023-02-23T07:36:59.553Z,22.5
2023-02-23T07:38:02.116Z,22.4
2023-02-23T07:39:04.624Z,22.4
2023-02-23T07:40:07.270Z,22.5
2023-02-23T07:41:09.214Z,22.5
2023-02-23T07:42:11.481Z,22.4
2023-02-23T07:43:13.972Z,22.5
2023-02-23T07:44:16.195Z,22.3
2023-02-23T07:45:18.426Z,22.5
2023-02-23T07:46:20.657Z,22.5
2023-02-23T07:47:22.670Z,22.4
2023-02-23T07:48:25.189Z,22.5
2023-02-23T07:49:28.050Z,22.5
2023-02-23T07:50:30.538Z,22.3
2023-02-23T07:51:32.813Z,22.7
2023-02-23T07:52:35.367Z,22.5
2023-02-23T07:53:37.585Z,22.5
2023-02-23T07:54:40.083Z,22.5
2023-02-23T07:55:42.403Z,22.5
2023-02-23T07:56:44.649Z,22.4
2023-02-23T07:57:47.148Z,22.5
2023-02-23T07:58:49.438Z,22.5
2023-02-23T07:59:51.933Z,22.4
2023-02-23T08:00:53.954Z,22.4
2023-02-23T08:01:56.626Z,22.5
2023-02-23T08:02:58.657Z,22.4
2023-02-23T08:04:01.234Z,22.4
2023-02-23T08:05:04.181Z,22.3
2023-02-23T08:06:06.669Z,22.6
2023-02-23T08:07:08.909Z,22.4
2023-02-23T08:08:11.133Z,22.4
2023-02-23T08:09:13.624Z,22.5
2023-02-23T08:10:16.153Z,22.4
2023-02-23T08:11:19.060Z,22.3
2023-02-23T08:12:22.515Z,22.4
2023-02-23T08:13:24.762Z,22.5
2023-02-23T08:14:26.973Z,22.4
2023-02-23T08:15:28.969Z,22.5
2023-02-23T08:16:31.235Z,22.4
2023-02-23T08:17:34.188Z,22.4
2023-02-23T08:18:36.816Z,22.6
2023-02-23T08:19:39.787Z,22.6
2023-02-23T08:20:41.741Z,22.3
2023-02-23T08:21:44.247Z,22.4
2023-02-23T08:22:49.582Z,22.5
2023-02-23T08:23:51.466Z,22.4
2023-02-23T08:24:53.979Z,22.3
2023-02-23T08:25:56.207Z,22.4
2023-02-23T08:26:58.916Z,22.5
2023-02-23T08:28:03.168Z,22.4
2023-02-23T08:29:06.477Z,22.3
2023-02-23T08:30:08.423Z,22.3
2023-02-23T08:31:10.809Z,22.3
2023-02-23T08:32:13.493Z,22.3
2023-02-23T08:33:16.626Z,22.4
2023-02-23T08:34:18.966Z,22.5
2023-02-23T08:35:21.517Z,22.4
2023-02-23T08:36:23.219Z,22.3
2023-02-23T08:37:25.816Z,22.4
2023-02-23T08:38:28.856Z,22.4
2023-02-23T08:39:31.387Z,22.4
2023-02-23T08:40:33.924Z,22.4
2023-02-23T08:41:35.924Z,22.3
2023-02-23T08:42:38.521Z,22.4
2023-02-23T08:43:40.767Z,22.5
2023-02-23T08:44:44.394Z,22.3
2023-02-23T08:45:46.907Z,22.3
2023-02-23T08:46:49.688Z,22.4
2023-02-23T08:47:52.221Z,22.3
2023-02-23T08:48:54.735Z,22.4
2023-02-23T08:49:56.973Z,22.4
2023-02-23T08:50:59.284Z,22.3
2023-02-23T08:52:01.883Z,22.6
2023-02-23T08:53:03.826Z,22.4
2023-02-23T08:54:06.124Z,22.4
2023-02-23T08:55:08.656Z,22.4
2023-02-23T08:56:11.178Z,22.5
2023-02-23T08:57:13.417Z,22.3
2023-02-23T08:58:16.180Z,22.4
2023-02-23T08:59:18.713Z,22.4
2023-02-23T09:00:20.993Z,22.5
2023-02-23T09:01:23.545Z,22.4
2023-02-23T09:02:26.525Z,22.5
2023-02-23T09:03:29.036Z,22.4
2023-02-23T09:04:31.407Z,22.5
2023-02-23T09:05:33.776Z,22.4
2023-02-23T09:06:36.696Z,22.6
2023-02-23T09:07:39.351Z,22.5
2023-02-23T09:08:41.940Z,22.4
2023-02-23T09:09:44.515Z,22.4
2023-02-23T09:10:46.748Z,22.3
2023-02-23T09:11:49.254Z,22.4
2023-02-23T09:12:51.748Z,22.5
2023-02-23T09:13:54.170Z,22.5
2023-02-23T09:14:56.414Z,22.6
2023-02-23T09:15:58.971Z,22.6
2023-02-23T09:17:01.842Z,22.4
2023-02-23T09:18:04.442Z,22.5
2023-02-23T09:19:06.662Z,22.4
2023-02-23T09:20:09.180Z,22.5
2023-02-23T09:21:11.764Z,22.4
2023-02-23T09:22:13.963Z,22.5
2023-02-23T09:23:16.480Z,22.5
2023-02-23T09:24:18.987Z,22.4
2023-02-23T09:25:21.230Z,22.4
2023-02-23T09:26:24.072Z,22.5
2023-02-23T09:27:26.726Z,22.5
2023-02-23T09:28:30.206Z,22.5
2023-02-23T09:29:33.431Z,22.5
2023-02-23T09:30:35.387Z,22.5
2023-02-23T09:31:37.643Z,22.4
2023-02-23T09:32:40.478Z,22.5
2023-02-23T09:33:43.168Z,22.5
2023-02-23T09:34:45.698Z,22.4
2023-02-23T09:35:47.936Z,22.4
2023-02-23T09:36:50.467Z,22.6
2023-02-23T09:37:53.002Z,22.5
2023-02-23T09:38:55.228Z,22.4
2023-02-23T09:39:58.141Z,22.6
2023-02-23T09:41:00.703Z,22.4
2023-02-23T09:42:03.242Z,22.7
2023-02-23T09:43:05.468Z,22.4
2023-02-23T09:44:07.473Z,22.5
2023-02-23T09:45:10.128Z,22.4
2023-02-23T09:46:12.757Z,22.5
2023-02-23T09:47:15.609Z,22.5
2023-02-23T09:48:17.991Z,22.5
2023-02-23T09:49:20.494Z,22.6
2023-02-23T09:50:22.806Z,22.4
2023-02-23T09:51:25.378Z,22.4
2023-02-23T09:52:27.666Z,22.5
2023-02-23T09:53:31.606Z,22.5
2023-02-23T09:54:35.191Z,22.6
2023-02-23T09:55:37.705Z,22.5
2023-02-23T09:56:40.209Z,22.4
2023-02-23T09:57:42.170Z,22.4
2023-02-23T09:58:44.388Z,22.4
2023-02-23T09:59:46.608Z,22.4
2023-02-23T10:00:49.385Z,22.4
2023-02-23T10:01:51.989Z,22.6
2023-02-23T10:02:54.391Z,22.4
2023-02-23T10:03:56.935Z,22.3
2023-02-23T10:04:59.564Z,22.4
2023-02-23T10:06:02.297Z,22.5
2023-02-23T10:07:04.807Z,22.5
2023-02-23T10:08:07.110Z,22.6
2023-02-23T10:09:09.464Z,22.5
2023-02-23T10:10:11.999Z,22.4
2023-02-23T10:11:14.721Z,22.5
2023-02-23T10:12:17.938Z,22.4
2023-02-23T10:13:20.157Z,22.6
2023-02-23T10:14:22.691Z,22.4
2023-02-23T10:15:25.236Z,22.5
2023-02-23T10:16:27.867Z,22.4
2023-02-23T10:17:30.417Z,22.4
2023-02-23T10:18:45.542Z,22.6
2023-02-23T10:19:37.916Z,22.4
2023-02-23T10:20:40.435Z,22.6
2023-02-23T10:21:42.660Z,22.3
2023-02-23T10:22:44.648Z,22.6
2023-02-23T10:23:47.186Z,22.6
2023-02-23T10:24:49.730Z,22.5
2023-02-23T10:25:52.257Z,22.6
2023-02-23T10:26:54.921Z,22.4
2023-02-23T10:27:57.164Z,22.4
2023-02-23T10:28:59.434Z,22.5
2023-02-23T10:30:02.206Z,22.5
2023-02-23T10:31:04.557Z,22.5
2023-02-23T10:32:07.822Z,22.4
2023-02-23T10:33:11.074Z,22.7
2023-02-23T10:34:13.583Z,22.5
2023-02-23T10:35:15.831Z,22.5
2023-02-23T10:36:18.107Z,22.5
2023-02-23T10:37:20.325Z,22.5
2023-02-23T10:38:22.860Z,22.4
2023-02-23T10:39:26.382Z,22.5
2023-02-23T10:40:30.140Z,22.6
2023-02-23T10:41:32.674Z,22.4
2023-02-23T10:42:34.925Z,22.5
2023-02-23T10:43:37.154Z,22.5
2023-02-23T10:44:39.110Z,22.5
2023-02-23T10:45:41.660Z,22.5
2023-02-23T10:46:44.269Z,22.5
2023-02-23T10:47:47.295Z,22.4
2023-02-23T10:48:49.366Z,22.5
2023-02-23T10:49:51.525Z,22.6
2023-02-23T10:50:53.546Z,22.4
2023-02-23T10:51:55.851Z,22.5
2023-02-23T10:52:57.930Z,22.4
2023-02-23T10:54:07.767Z,22.3
2023-02-23T10:55:05.469Z,22.4
2023-02-23T10:56:07.715Z,22.3
2023-02-23T10:57:09.711Z,22.3
2023-02-23T10:58:12.253Z,22.4
2023-02-23T10:59:14.687Z,22.4
2023-02-23T11:00:18.247Z,22.5
2023-02-23T11:01:21.959Z,22.4
2023-02-23T11:02:25.988Z,22.3
2023-02-23T11:03:30.235Z,22.5
2023-02-23T11:04:32.814Z,22.4
2023-02-23T11:05:35.227Z,22.3
2023-02-23T11:06:37.787Z,22.5
2023-02-23T11:07:40.309Z,22.4
2023-02-23T11:08:42.824Z,22.4
2023-02-23T11:09:47.657Z,22.3
2023-02-23T11:10:50.078Z,22.4
2023-02-23T11:11:52.587Z,22.4
2023-02-23T11:12:55.109Z,22.4
2023-02-23T11:13:57.085Z,22.4
2023-02-23T11:14:59.603Z,22.4
2023-02-23T11:16:01.569Z,22.3
2023-02-23T11:17:04.047Z,22.4
2023-02-23T11:18:06.292Z,22.3
2023-02-23T11:19:08.948Z,22.5
2023-02-23T11:20:11.492Z,22.3
2023-02-23T11:21:14.020Z,22.4
2023-02-23T11:22:16.262Z,22.4
2023-02-23T11:23:18.887Z,22.3
2023-02-23T11:24:21.414Z,22.5
2023-02-23T11:25:23.589Z,22.5
2023-02-23T11:26:26.231Z,22.5
2023-02-23T11:27:28.888Z,22.4
2023-02-23T11:28:31.157Z,22.5
2023-02-23T11:29:33.540Z,22.4
2023-02-23T11:30:36.118Z,22.6
2023-02-23T11:31:39.479Z,22.5
2023-02-23T11:32:42.831Z,22.4
2023-02-23T11:33:45.632Z,22.5
2023-02-23T11:34:48.033Z,22.5
2023-02-23T11:35:50.283Z,22.4
2023-02-23T11:36:52.788Z,22.5
2023-02-23T11:37:54.997Z,22.5
2023-02-23T11:38:57.233Z,22.4
2023-02-23T11:39:59.746Z,22.5
2023-02-23T11:41:02.292Z,22.4
2023-02-23T11:42:04.290Z,22.5
2023-02-23T11:43:06.570Z,22.5
2023-02-23T11:44:09.232Z,22.5
2023-02-23T11:45:11.749Z,22.4
2023-02-23T11:46:14.412Z,22.4
2023-02-23T11:47:17.477Z,22.4
2023-02-23T11:48:20.125Z,22.4
2023-02-23T11:49:22.356Z,22.5
2023-02-23T11:50:25.026Z,22.4
2023-02-23T11:51:27.002Z,22.5
2023-02-23T11:52:29.534Z,22.5
2023-02-23T11:53:32.047Z,22.3
2023-02-23T11:54:34.289Z,22.3
2023-02-23T11:55:36.850Z,22.3
2023-02-23T11:56:38.799Z,22.2
2023-02-23T11:57:41.359Z,22.6
2023-02-23T11:58:43.862Z,22.4
2023-02-23T11:59:48.024Z,22.3
2023-02-23T12:00:50.564Z,22.4
2023-02-23T12:01:53.135Z,22.5
2023-02-23T12:02:55.746Z,22.5
2023-02-23T12:03:58.172Z,22.3
2023-02-23T12:05:01.571Z,22.4
2023-02-23T12:06:04.618Z,22.5
2023-02-23T12:07:06.853Z,22.4
2023-02-23T12:08:09.492Z,22.5
2023-02-23T12:09:12.212Z,22.4
2023-02-23T12:10:14.741Z,22.3
2023-02-23T12:11:17.727Z,22.4
2023-02-23T12:12:20.257Z,22.5
2023-02-23T12:13:22.595Z,22.3
2023-02-23T12:14:25.098Z,22.4
2023-02-23T12:15:27.392Z,22.3
2023-02-23T12:16:29.950Z,22.5
2023-02-23T12:17:32.383Z,22.4
2023-02-23T12:18:34.690Z,22.3
2023-02-23T12:19:36.920Z,22.4
2023-02-23T12:20:39.423Z,22.4
2023-02-23T12:21:42.025Z,22.4
2023-02-23T12:22:44.257Z,22.5
2023-02-23T12:23:48.377Z,22.4
2023-02-23T12:24:51.228Z,22.4
2023-02-23T12:25:53.178Z,22.5
2023-02-23T12:26:55.167Z,22.5
2023-02-23T12:27:57.135Z,22.4
2023-02-23T12:29:03.200Z,22.4
2023-02-23T12:30:08.406Z,22.4
2023-02-23T12:31:10.399Z,22.5
2023-02-23T12:32:13.057Z,22.3
2023-02-23T12:33:16.451Z,22.5
2023-02-23T12:34:19.001Z,22.3
2023-02-23T12:35:21.217Z,22.4
2023-02-23T12:36:22.631Z,22.3
2023-02-23T12:37:25.569Z,22.4
2023-02-23T12:38:27.576Z,22.4
2023-02-23T12:39:30.142Z,22.4
2023-02-23T12:40:32.661Z,22.4
2023-02-23T12:41:35.281Z,22.5
2023-02-23T12:42:37.271Z,22.5
2023-02-23T12:43:39.499Z,22.4
2023-02-23T12:44:42.057Z,22.4
2023-02-23T12:45:44.618Z,22.4
2023-02-23T12:46:47.502Z,22.4
2023-02-23T12:47:49.244Z,22.4
2023-02-23T12:48:51.538Z,22.6
2023-02-23T12:49:54.080Z,22.4
2023-02-23T12:50:56.597Z,22.4
2023-02-23T12:51:59.151Z,22.5
2023-02-23T12:53:01.754Z,22.5
2023-02-23T12:54:04.037Z,22.5
2023-02-23T12:55:06.056Z,22.5
2023-02-23T12:56:08.577Z,22.4
2023-02-23T12:57:11.759Z,22.3
2023-02-23T12:58:14.018Z,22.3
2023-02-23T12:59:16.507Z,22.4
2023-02-23T13:00:18.775Z,22.4
2023-02-23T13:01:21.201Z,22.4
2023-02-23T13:02:24.716Z,22.5
2023-02-23T13:03:27.312Z,22.2
2023-02-23T13:04:29.841Z,22.4
2023-02-23T13:05:32.086Z,22.4
2023-02-23T13:06:34.634Z,22.4
2023-02-23T13:07:37.167Z,22.4
2023-02-23T13:08:39.787Z,22.5
2023-02-23T13:09:41.754Z,22.4
2023-02-23T13:10:44.009Z,22.3
2023-02-23T13:11:46.518Z,22.4
2023-02-23T13:12:48.492Z,22.4
2023-02-23T13:13:51.387Z,22.4
2023-02-23T13:14:53.609Z,22.4
2023-02-23T13:15:55.921Z,22.4
2023-02-23T13:16:58.565Z,22.3
2023-02-23T13:18:01.328Z,22.4
2023-02-23T13:19:04.922Z,22.3
2023-02-23T13:20:07.611Z,22.4
2023-02-23T13:21:09.868Z,22.4
2023-02-23T13:22:12.113Z,22.4
2023-02-23T13:23:14.338Z,22.4
2023-02-23T13:24:16.932Z,22.3
2023-02-23T13:25:19.502Z,22.4
2023-02-23T13:26:22.070Z,22.7
2023-02-23T13:27:24.578Z,22.4
2023-02-23T13:28:27.071Z,22.4
2023-02-23T13:29:29.577Z,22.4
2023-02-23T13:30:32.133Z,22.4
2023-02-23T13:31:35.690Z,22.5
2023-02-23T13:32:39.294Z,22.4
2023-02-23T13:33:44.155Z,22.3
2023-02-23T13:34:46.897Z,22.5
2023-02-23T13:35:49.428Z,22.5
2023-02-23T13:36:52.050Z,22.5
2023-02-23T13:37:54.294Z,22.5
2023-02-23T13:38:56.260Z,22.4
2023-02-23T13:40:04.206Z,22.5
2023-02-23T13:41:06.500Z,22.5
2023-02-23T13:42:08.844Z,22.3
2023-02-23T13:43:10.849Z,22.3
2023-02-23T13:44:13.109Z,22.5
2023-02-23T13:45:15.621Z,22.4
2023-02-23T13:46:18.278Z,22.6
2023-02-23T13:47:20.778Z,22.3
2023-02-23T13:48:23.320Z,22.6
2023-02-23T13:49:25.600Z,22.4
2023-02-23T13:50:28.147Z,22.5
2023-02-23T13:51:30.716Z,22.5
2023-02-23T13:52:33.251Z,22.4
2023-02-23T13:53:35.227Z,22.4
2023-02-23T13:54:37.484Z,22.5
2023-02-23T13:55:48.988Z,22.3